createdAt,value
2023-02-02T00:01:26.586Z,6.79
2023-02-02T00:03:53.975Z,6.69
2023-02-02T00:06:22.196Z,6.72
2023-02-02T00:08:49.586Z,6.86
2023-02-02T00:11:17.602Z,6.84
2023-02-02T00:13:44.983Z,6.85
2023-02-02T00:16:27.388Z,6.89
2023-02-02T00:18:56.525Z,6.65
2023-02-02T00:21:24.236Z,6.48
2023-02-02T00:23:51.916Z,6.36
2023-02-02T00:26:19.682Z,6.55
2023-02-02T00:28:46.782Z,6.69
2023-02-02T00:31:13.824Z,6.64
2023-02-02T00:33:45.899Z,6.58
2023-02-02T00:36:12.938Z,6.55
2023-02-02T00:38:39.836Z,6.53
2023-02-02T00:41:07.559Z,6.55
2023-02-02T00:43:34.482Z,6.49
2023-02-02T00:46:01.982Z,6.44
2023-02-02T00:48:29.017Z,6.34
2023-02-02T00:50:56.200Z,6.35
2023-02-02T00:53:23.313Z,6.45
2023-02-02T00:55:50.248Z,6.49
2023-02-02T00:58:17.153Z,6.40
2023-02-02T01:00:44.212Z,6.33
2023-02-02T01:03:13.473Z,6.40
2023-02-02T01:05:40.623Z,6.24
2023-02-02T01:08:07.657Z,6.14
2023-02-02T01:10:35.397Z,6.04
2023-02-02T01:13:02.799Z,6.01
2023-02-02T01:15:31.676Z,6.19
2023-02-02T01:17:58.793Z,5.97
2023-02-02T01:20:26.075Z,6.23
2023-02-02T01:22:53.277Z,6.10
2023-02-02T01:25:20.481Z,6.19
2023-02-02T01:27:47.880Z,6.03
2023-02-02T01:30:15.073Z,6.10
2023-02-02T01:32:42.081Z,6.05
2023-02-02T01:35:10.498Z,6.00
2023-02-02T01:37:39.493Z,5.98
2023-02-02T01:40:07.614Z,5.80
2023-02-02T01:42:34.782Z,5.83
2023-02-02T01:45:14.810Z,5.81
2023-02-02T01:47:51.792Z,5.80
2023-02-02T01:50:21.791Z,5.92
2023-02-02T01:52:50.931Z,6.00
2023-02-02T01:55:20.760Z,5.90
2023-02-02T01:58:08.532Z,5.97
2023-02-02T02:00:38.373Z,6.05
2023-02-02T02:03:14.302Z,6.19
2023-02-02T02:05:56.062Z,6.11
2023-02-02T02:08:31.387Z,6.10
2023-02-02T02:10:58.875Z,6.06
2023-02-02T02:13:47.585Z,6.13
2023-02-02T02:16:28.869Z,6.13
2023-02-02T02:19:20.854Z,6.16
2023-02-02T02:22:20.291Z,6.08
2023-02-02T02:25:58.035Z,6.06
2023-02-02T02:28:38.814Z,6.05
2023-02-02T02:31:17.933Z,6.10
2023-02-02T02:34:03.632Z,6.10
2023-02-02T02:36:41.011Z,6.02
2023-02-02T02:39:31.442Z,5.95
2023-02-02T02:42:05.242Z,6.00
2023-02-02T02:44:34.012Z,5.92
2023-02-02T02:47:01.277Z,6.05
2023-02-02T02:49:28.935Z,6.04
2023-02-02T02:51:56.532Z,5.97
2023-02-02T02:54:38.294Z,5.90
2023-02-02T02:57:25.912Z,5.94
2023-02-02T03:00:26.260Z,5.92
2023-02-02T03:03:14.552Z,6.00
2023-02-02T03:06:03.396Z,5.99
2023-02-02T03:08:36.831Z,5.92
2023-02-02T03:11:07.057Z,5.89
2023-02-02T03:13:34.572Z,5.95
2023-02-02T03:16:02.309Z,5.92
2023-02-02T03:18:31.584Z,5.97
2023-02-02T03:20:58.769Z,6.05
2023-02-02T03:23:26.253Z,6.05
2023-02-02T03:25:54.255Z,6.05
2023-02-02T03:28:23.482Z,5.99
2023-02-02T03:30:52.401Z,6.08
2023-02-02T03:33:19.913Z,6.12
2023-02-02T03:35:47.651Z,6.10
2023-02-02T03:38:14.692Z,6.04
2023-02-02T03:40:41.982Z,6.03
2023-02-02T03:43:09.395Z,6.05
2023-02-02T03:45:37.476Z,6.14
2023-02-02T03:48:05.968Z,6.20
2023-02-02T03:50:33.701Z,6.25
2023-02-02T03:53:00.794Z,6.15
2023-02-02T03:55:27.752Z,6.08
2023-02-02T03:57:54.919Z,6.12
2023-02-02T04:00:22.379Z,6.12
2023-02-02T04:02:49.574Z,6.02
2023-02-02T04:05:16.764Z,5.97
2023-02-02T04:07:43.793Z,6.02
2023-02-02T04:10:11.342Z,5.91
2023-02-02T04:12:38.334Z,5.94
2023-02-02T04:15:05.953Z,5.89
2023-02-02T04:17:32.913Z,5.97
2023-02-02T04:19:59.939Z,6.06
2023-02-02T04:22:27.520Z,6.05
2023-02-02T04:24:54.513Z,6.09
2023-02-02T04:27:21.554Z,6.06
2023-02-02T04:29:48.761Z,6.03
2023-02-02T04:32:17.035Z,5.99
2023-02-02T04:34:44.313Z,6.00
2023-02-02T04:37:12.044Z,5.97
2023-02-02T04:39:38.995Z,5.97
2023-02-02T04:42:06.088Z,5.94
2023-02-02T04:44:33.154Z,5.93
2023-02-02T04:47:00.310Z,5.92
2023-02-02T04:49:27.515Z,5.88
2023-02-02T04:51:54.811Z,5.82
2023-02-02T04:54:22.053Z,5.68
2023-02-02T04:56:49.170Z,5.66
2023-02-02T04:59:16.314Z,5.60
2023-02-02T05:01:43.454Z,5.41
2023-02-02T05:04:12.045Z,5.46
2023-02-02T05:06:39.103Z,5.29
2023-02-02T05:09:06.221Z,5.09
2023-02-02T05:11:33.419Z,5.11
2023-02-02T05:14:00.476Z,5.04
2023-02-02T05:16:29.164Z,4.93
2023-02-02T05:18:57.491Z,4.90
2023-02-02T05:21:24.729Z,4.82
2023-02-02T05:23:51.772Z,4.78
2023-02-02T05:26:23.579Z,4.73
2023-02-02T05:28:50.830Z,4.68
2023-02-02T05:31:18.468Z,4.59
2023-02-02T05:33:45.900Z,4.60
2023-02-02T05:36:13.220Z,4.60
2023-02-02T05:38:40.214Z,4.61
2023-02-02T05:41:07.228Z,4.63
2023-02-02T05:43:34.520Z,4.63
2023-02-02T05:46:02.244Z,4.56
2023-02-02T05:48:29.358Z,4.54
2023-02-02T05:51:02.320Z,4.54
2023-02-02T05:53:31.255Z,4.56
2023-02-02T05:55:59.062Z,4.57
2023-02-02T05:58:26.169Z,4.54
2023-02-02T06:00:55.018Z,4.57
2023-02-02T06:03:23.941Z,4.57
2023-02-02T06:05:51.105Z,4.59
2023-02-02T06:08:18.118Z,4.56
2023-02-02T06:10:45.156Z,4.53
2023-02-02T06:13:12.297Z,4.53
2023-02-02T06:15:39.294Z,4.52
2023-02-02T06:18:08.576Z,4.54
2023-02-02T06:20:36.477Z,4.58
2023-02-02T06:23:03.510Z,4.55
2023-02-02T06:25:30.707Z,4.53
2023-02-02T06:27:58.827Z,4.57
2023-02-02T06:30:26.439Z,4.51
2023-02-02T06:32:53.818Z,4.52
2023-02-02T06:35:20.933Z,4.58
2023-02-02T06:37:48.546Z,4.67
2023-02-02T06:40:15.647Z,4.61
2023-02-02T06:42:42.546Z,4.62
2023-02-02T06:45:10.261Z,4.65
2023-02-02T06:47:37.269Z,4.65
2023-02-02T06:50:05.135Z,4.70
2023-02-02T06:52:32.240Z,4.69
2023-02-02T06:54:59.229Z,4.66
2023-02-02T06:57:26.189Z,4.70
2023-02-02T06:59:53.148Z,4.73
2023-02-02T07:02:20.221Z,4.69
2023-02-02T07:04:47.229Z,4.73
2023-02-02T07:07:14.158Z,4.72
2023-02-02T07:09:41.125Z,4.70
2023-02-02T07:12:08.017Z,4.67
2023-02-02T07:14:35.068Z,4.69
2023-02-02T07:17:01.956Z,4.63
2023-02-02T07:19:29.364Z,4.64
2023-02-02T07:21:56.309Z,4.69
2023-02-02T07:24:23.297Z,4.56
2023-02-02T07:26:50.276Z,4.73
2023-02-02T07:29:17.261Z,4.73
2023-02-02T07:31:44.404Z,4.64
2023-02-02T07:34:11.372Z,4.72
2023-02-02T07:36:38.680Z,4.73
2023-02-02T07:39:05.869Z,4.68
2023-02-02T07:41:35.375Z,4.74
2023-02-02T07:44:02.370Z,4.68
2023-02-02T07:46:29.567Z,4.75
2023-02-02T07:49:00.199Z,4.81
2023-02-02T07:51:27.161Z,4.82
2023-02-02T07:53:55.345Z,4.89
2023-02-02T07:56:23.773Z,4.89
2023-02-02T07:58:53.289Z,4.94
2023-02-02T08:01:23.254Z,5.01
2023-02-02T08:03:51.092Z,5.07
2023-02-02T08:06:24.232Z,5.08
2023-02-02T08:08:51.838Z,5.06
2023-02-02T08:11:21.722Z,5.10
2023-02-02T08:13:50.419Z,5.15
2023-02-02T08:16:18.069Z,5.12
2023-02-02T08:18:45.497Z,5.19
2023-02-02T08:21:13.048Z,5.24
2023-02-02T08:23:41.430Z,5.26
2023-02-02T08:26:21.200Z,5.31
2023-02-02T08:28:51.801Z,5.36
2023-02-02T08:31:22.114Z,5.36
2023-02-02T08:33:49.551Z,5.41
2023-02-02T08:36:19.827Z,5.39
2023-02-02T08:38:47.128Z,5.38
2023-02-02T08:41:17.681Z,5.43
2023-02-02T08:43:45.249Z,5.52
2023-02-02T08:46:14.713Z,5.47
2023-02-02T08:48:42.300Z,5.49
2023-02-02T08:51:12.159Z,5.33
2023-02-02T08:53:39.142Z,5.31
2023-02-02T08:56:10.314Z,5.28
2023-02-02T08:58:37.652Z,5.14
2023-02-02T09:01:28.794Z,5.06
2023-02-02T09:04:07.156Z,4.96
2023-02-02T09:06:37.532Z,4.93
2023-02-02T09:09:06.040Z,4.99
2023-02-02T09:11:33.441Z,4.91
2023-02-02T09:14:06.647Z,4.88
2023-02-02T09:16:35.103Z,4.77
2023-02-02T09:19:02.571Z,4.73
2023-02-02T09:21:29.606Z,4.83
2023-02-02T09:23:56.802Z,4.88
2023-02-02T09:26:29.893Z,4.92
2023-02-02T09:29:04.822Z,4.96
2023-02-02T09:31:35.300Z,4.97
2023-02-02T09:34:04.034Z,5.00
2023-02-02T09:36:31.744Z,5.12
2023-02-02T09:38:59.097Z,5.14
2023-02-02T09:41:37.974Z,5.10
2023-02-02T09:44:11.511Z,5.08
2023-02-02T09:47:12.187Z,5.16
2023-02-02T09:49:57.760Z,5.17
2023-02-02T09:52:34.754Z,5.21
2023-02-02T09:55:16.807Z,5.24
2023-02-02T09:57:49.178Z,5.22
2023-02-02T10:00:31.796Z,5.27
2023-02-02T10:03:37.921Z,5.33
2023-02-02T10:06:21.707Z,5.34
2023-02-02T10:08:58.998Z,5.40
2023-02-02T10:11:28.940Z,5.27
2023-02-02T10:14:00.278Z,5.18
2023-02-02T10:16:27.721Z,5.25
2023-02-02T10:19:09.918Z,5.12
2023-02-02T10:21:53.161Z,5.25
2023-02-02T10:24:26.671Z,5.25
2023-02-02T10:27:04.568Z,5.17
2023-02-02T10:29:49.277Z,5.03
2023-02-02T10:32:26.977Z,5.02
2023-02-02T10:35:11.073Z,5.03
2023-02-02T10:37:54.457Z,5.00
2023-02-02T10:40:56.945Z,5.03
2023-02-02T10:43:47.397Z,4.90
2023-02-02T10:46:20.355Z,4.99
2023-02-02T10:48:49.250Z,5.01
2023-02-02T10:51:28.696Z,4.96
2023-02-02T10:53:59.378Z,5.04
2023-02-02T10:56:42.460Z,5.13
2023-02-02T10:59:19.692Z,5.17
2023-02-02T11:01:46.776Z,5.17
2023-02-02T11:04:32.166Z,5.19
2023-02-02T11:07:01.437Z,5.15
2023-02-02T11:09:35.571Z,5.11
2023-02-02T11:12:29.328Z,5.19
2023-02-02T11:15:09.433Z,5.26
2023-02-02T11:17:36.472Z,5.29
2023-02-02T11:20:23.565Z,5.32
2023-02-02T11:23:01.356Z,5.41
2023-02-02T11:25:36.993Z,5.45
2023-02-02T11:28:21.318Z,5.45
2023-02-02T11:30:52.718Z,5.52
2023-02-02T11:33:33.860Z,5.58
2023-02-02T11:36:06.272Z,5.60
2023-02-02T11:38:33.538Z,5.56
2023-02-02T11:41:07.270Z,5.61
2023-02-02T11:43:53.755Z,5.63
2023-02-02T11:46:31.286Z,5.63
2023-02-02T11:49:10.308Z,5.76
2023-02-02T11:51:37.352Z,5.89
2023-02-02T11:54:08.125Z,6.04
2023-02-02T11:56:37.284Z,6.01
2023-02-02T11:59:05.745Z,6.12
2023-02-02T12:13:58.706Z,5.48
2023-02-02T12:16:37.948Z,5.40
2023-02-02T12:19:23.129Z,5.43
2023-02-02T12:22:37.992Z,5.50
2023-02-02T12:25:25.666Z,5.60
2023-02-02T12:27:59.240Z,5.79
2023-02-02T12:31:07.946Z,5.79
2023-02-02T12:33:53.677Z,5.93
2023-02-02T12:36:41.816Z,5.92
2023-02-02T12:39:39.759Z,6.00
2023-02-02T12:42:15.550Z,6.01
2023-02-02T12:44:42.439Z,6.07
2023-02-02T12:47:28.960Z,5.93
2023-02-02T12:50:31.532Z,6.20
2023-02-02T12:53:29.320Z,6.10
2023-02-02T12:56:17.016Z,6.17
2023-02-02T12:59:14.730Z,6.09
2023-02-02T13:01:44.371Z,6.20
2023-02-02T13:04:32.577Z,6.28
2023-02-02T13:07:05.189Z,6.34
2023-02-02T13:09:50.206Z,6.21
2023-02-02T13:12:23.240Z,6.15
2023-02-02T13:15:03.992Z,6.17
2023-02-02T13:17:42.076Z,6.09
2023-02-02T13:20:23.164Z,6.01
2023-02-02T13:22:54.499Z,6.12
2023-02-02T13:25:30.713Z,6.11
2023-02-02T13:28:00.395Z,6.13
2023-02-02T13:30:39.842Z,6.20
2023-02-02T13:33:37.969Z,6.22
2023-02-02T13:36:16.559Z,6.27
2023-02-02T13:38:45.908Z,6.31
2023-02-02T13:41:13.883Z,6.21
2023-02-02T13:43:43.791Z,6.28
2023-02-02T13:46:30.049Z,6.23
2023-02-02T13:49:13.492Z,6.31
2023-02-02T13:51:56.170Z,6.39
2023-02-02T13:54:45.952Z,6.38
2023-02-02T13:57:40.513Z,6.38
2023-02-02T14:00:21.935Z,6.36
2023-02-02T14:02:58.056Z,6.34
2023-02-02T14:05:28.332Z,6.13
2023-02-02T14:08:07.475Z,6.12
2023-02-02T14:10:43.209Z,6.05
2023-02-02T14:13:30.601Z,6.14
2023-02-02T14:16:00.232Z,6.14
2023-02-02T14:18:49.299Z,6.14
2023-02-02T14:21:32.166Z,6.09
2023-02-02T14:24:21.589Z,6.14
2023-02-02T14:26:59.317Z,6.28
2023-02-02T14:29:32.016Z,6.31
2023-02-02T14:32:29.537Z,6.25
2023-02-02T14:35:20.579Z,6.32
2023-02-02T14:37:58.645Z,6.23
2023-02-02T14:40:38.950Z,6.32
2023-02-02T14:43:46.317Z,6.26
2023-02-02T14:46:13.388Z,6.30
2023-02-02T14:48:57.328Z,6.19
2023-02-02T14:51:28.040Z,6.18
2023-02-02T14:54:01.337Z,6.22
2023-02-02T14:57:03.054Z,6.24
2023-02-02T14:59:36.950Z,6.19
2023-02-02T15:02:10.593Z,6.19
2023-02-02T15:04:37.802Z,6.18
2023-02-02T15:07:23.391Z,6.11
2023-02-02T15:09:56.953Z,6.19
2023-02-02T15:12:43.271Z,6.15
2023-02-02T15:15:28.183Z,6.11
2023-02-02T15:18:05.511Z,6.12
2023-02-02T15:20:49.863Z,6.11
2023-02-02T15:23:23.773Z,5.93
2023-02-02T15:25:54.475Z,5.92
2023-02-02T15:28:57.419Z,5.81
2023-02-02T15:31:42.916Z,5.79
2023-02-02T15:34:36.249Z,5.68
2023-02-02T15:37:06.689Z,5.69
2023-02-02T15:39:41.934Z,5.52
2023-02-02T15:42:34.962Z,5.55
2023-02-02T15:45:02.370Z,5.57
2023-02-02T15:47:36.569Z,5.48
2023-02-02T15:50:19.249Z,5.45
2023-02-02T15:52:50.387Z,5.44
2023-02-02T15:55:22.127Z,5.36
2023-02-02T15:57:53.126Z,5.40
2023-02-02T16:00:34.371Z,5.37
2023-02-02T16:03:27.114Z,5.37
2023-02-02T16:05:56.795Z,5.23
2023-02-02T16:08:35.475Z,5.18
2023-02-02T16:11:19.517Z,5.23
2023-02-02T16:14:10.607Z,5.31
2023-02-02T16:16:40.061Z,5.30
2023-02-02T16:19:24.852Z,5.20
2023-02-02T16:21:56.422Z,5.18
2023-02-02T16:24:30.631Z,5.27
2023-02-02T16:27:03.006Z,5.34
2023-02-02T16:29:30.294Z,5.29
2023-02-02T16:31:58.560Z,5.32
2023-02-02T16:34:41.053Z,5.37
2023-02-02T16:37:15.040Z,5.32
2023-02-02T16:39:42.516Z,5.39
2023-02-02T16:42:30.282Z,5.42
2023-02-02T16:44:59.558Z,5.44
2023-02-02T16:47:26.585Z,5.43
2023-02-02T16:50:08.859Z,5.44
2023-02-02T16:53:02.955Z,5.44
2023-02-02T16:55:48.029Z,5.43
2023-02-02T16:58:21.972Z,5.44
2023-02-02T17:01:13.973Z,5.42
2023-02-02T17:03:51.298Z,5.42
2023-02-02T17:06:31.283Z,5.41
2023-02-02T17:09:17.224Z,5.41
2023-02-02T17:12:33.117Z,5.40
2023-02-02T17:15:06.154Z,5.42
2023-02-02T17:17:33.203Z,5.44
2023-02-02T17:20:00.209Z,5.46
2023-02-02T17:22:27.962Z,5.47
2023-02-02T17:24:55.128Z,5.47
2023-02-02T17:27:28.208Z,5.44
2023-02-02T17:29:56.508Z,5.44
2023-02-02T17:32:25.070Z,5.45
2023-02-02T17:34:52.029Z,5.47
2023-02-02T17:37:19.206Z,5.45
2023-02-02T17:39:46.317Z,5.46
2023-02-02T17:42:39.516Z,5.46
2023-02-02T17:45:33.798Z,5.40
2023-02-02T17:48:01.874Z,5.40
2023-02-02T17:50:29.889Z,5.38
2023-02-02T17:52:57.165Z,5.37
2023-02-02T17:55:47.085Z,5.37
2023-02-02T17:58:17.300Z,5.37
2023-02-02T18:00:47.243Z,5.34
2023-02-02T18:03:26.756Z,5.32
2023-02-02T18:05:53.886Z,5.31
2023-02-02T18:08:20.994Z,5.17
2023-02-02T18:10:48.412Z,5.19
2023-02-02T18:13:17.813Z,5.12
2023-02-02T18:15:44.834Z,5.08
2023-02-02T18:18:15.173Z,5.04
2023-02-02T18:20:48.147Z,4.98
2023-02-02T18:23:16.054Z,4.92
2023-02-02T18:25:43.443Z,4.94
2023-02-02T18:28:11.050Z,4.92
2023-02-02T18:30:39.725Z,4.91
2023-02-02T18:33:10.597Z,4.90
2023-02-02T18:35:45.921Z,4.86
2023-02-02T18:38:13.432Z,4.86
2023-02-02T18:40:40.706Z,4.87
2023-02-02T18:43:07.978Z,4.86
2023-02-02T18:45:36.056Z,4.83
2023-02-02T18:48:03.103Z,4.84
2023-02-02T18:50:30.291Z,4.84
2023-02-02T18:52:57.359Z,4.82
2023-02-02T18:55:24.965Z,4.79
2023-02-02T18:57:53.862Z,4.79
2023-02-02T19:00:22.328Z,4.81
2023-02-02T19:02:49.454Z,4.70
2023-02-02T19:05:35.137Z,4.66
2023-02-02T19:08:11.690Z,4.49
2023-02-02T19:10:38.770Z,4.44
2023-02-02T19:13:05.762Z,4.42
2023-02-02T19:15:39.520Z,4.40
2023-02-02T19:18:16.232Z,4.31
2023-02-02T19:20:43.844Z,4.28
2023-02-02T19:23:16.651Z,4.21
2023-02-02T19:25:51.356Z,4.28
2023-02-02T19:28:30.949Z,4.25
2023-02-02T19:31:01.420Z,4.25
2023-02-02T19:33:40.881Z,4.27
2023-02-02T19:36:22.833Z,4.08
2023-02-02T19:38:56.030Z,3.99
2023-02-02T19:41:26.471Z,3.96
2023-02-02T19:44:10.754Z,3.96
2023-02-02T19:46:43.946Z,3.90
2023-02-02T19:49:16.450Z,3.93
2023-02-02T19:51:48.810Z,3.85
2023-02-02T19:54:48.190Z,4.01
2023-02-02T19:57:33.095Z,4.15
2023-02-02T20:00:11.795Z,4.15
2023-02-02T20:03:02.178Z,4.06
2023-02-02T20:05:34.826Z,4.29
2023-02-02T20:08:24.433Z,4.29
2023-02-02T20:10:54.069Z,4.30
2023-02-02T20:13:43.957Z,4.39
2023-02-02T20:16:22.592Z,4.42
2023-02-02T20:18:53.957Z,4.47
2023-02-02T20:21:43.971Z,4.46
2023-02-02T20:24:18.345Z,4.50
2023-02-02T20:26:46.566Z,4.50
2023-02-02T20:29:25.271Z,4.48
2023-02-02T20:31:54.701Z,4.46
2023-02-02T20:34:29.561Z,4.44
2023-02-02T20:36:59.467Z,4.40
2023-02-02T20:39:40.036Z,4.35
2023-02-02T20:42:07.372Z,4.34
2023-02-02T20:44:35.530Z,4.27
2023-02-02T20:47:03.163Z,4.27
2023-02-02T20:49:32.005Z,4.16
2023-02-02T20:52:01.031Z,4.13
2023-02-02T20:54:29.080Z,4.12
2023-02-02T20:56:56.072Z,4.12
2023-02-02T20:59:23.118Z,4.16
2023-02-02T21:01:50.764Z,4.08
2023-02-02T21:04:18.692Z,4.10
2023-02-02T21:06:48.906Z,4.09
2023-02-02T21:09:16.846Z,4.11
2023-02-02T21:11:44.530Z,4.10
2023-02-02T21:14:11.562Z,4.12
2023-02-02T21:16:38.619Z,4.10
2023-02-02T21:19:06.089Z,4.16
2023-02-02T21:21:33.100Z,4.17
2023-02-02T21:24:01.079Z,4.19
2023-02-02T21:26:30.832Z,4.22
2023-02-02T21:28:58.788Z,4.27
2023-02-02T21:31:26.404Z,4.29
2023-02-02T21:33:54.080Z,4.25
2023-02-02T21:36:32.335Z,4.30
2023-02-02T21:39:17.480Z,4.32
2023-02-02T21:41:44.711Z,4.34
2023-02-02T21:44:17.082Z,4.36
2023-02-02T21:46:45.564Z,4.31
2023-02-02T21:49:40.122Z,4.32
2023-02-02T21:52:14.399Z,4.32
2023-02-02T21:54:41.750Z,4.28
2023-02-02T21:57:21.545Z,4.24
2023-02-02T21:59:57.433Z,4.28
2023-02-02T22:02:44.662Z,4.27
2023-02-02T22:05:36.217Z,4.28
2023-02-02T22:08:18.698Z,4.27
2023-02-02T22:10:45.960Z,4.27
2023-02-02T22:13:24.042Z,4.25
2023-02-02T22:15:52.092Z,4.23
2023-02-02T22:18:24.251Z,4.22
2023-02-02T22:20:53.405Z,4.27
2023-02-02T22:23:26.840Z,4.28
2023-02-02T22:25:56.997Z,4.32
2023-02-02T22:28:28.885Z,4.24
2023-02-02T22:30:57.189Z,4.27
2023-02-02T22:33:26.461Z,4.26
2023-02-02T22:35:53.813Z,4.25
2023-02-02T22:38:23.081Z,4.28
2023-02-02T22:40:51.749Z,4.26
2023-02-02T22:43:20.670Z,4.28
2023-02-02T22:45:49.441Z,4.28
2023-02-02T22:48:17.168Z,4.31
2023-02-02T22:50:44.487Z,4.19
2023-02-02T22:53:12.551Z,4.24
2023-02-02T22:55:39.510Z,4.24
2023-02-02T22:58:06.516Z,4.28
2023-02-02T23:00:33.550Z,4.31
2023-02-02T23:03:01.096Z,4.08
2023-02-02T23:05:28.538Z,4.12
2023-02-02T23:07:55.946Z,4.16
2023-02-02T23:10:26.214Z,4.12
2023-02-02T23:12:55.423Z,4.16
2023-02-02T23:15:22.780Z,4.06
2023-02-02T23:17:50.100Z,4.08
2023-02-02T23:20:18.157Z,4.03
2023-02-02T23:22:45.247Z,4.04
2023-02-02T23:25:13.591Z,4.06
2023-02-02T23:27:40.904Z,3.86
2023-02-02T23:30:09.414Z,3.92
2023-02-02T23:32:36.549Z,4.01
2023-02-02T23:35:04.398Z,4.08
2023-02-02T23:37:31.440Z,4.06
2023-02-02T23:39:58.449Z,4.06
2023-02-02T23:42:25.937Z,4.12
2023-02-02T23:44:53.114Z,4.10
2023-02-02T23:47:20.259Z,4.17
2023-02-02T23:49:47.411Z,4.23
2023-02-02T23:52:15.003Z,4.18
2023-02-02T23:54:43.010Z,4.27
2023-02-02T23:57:10.546Z,4.30
2023-02-02T23:59:37.487Z,4.28
